Time;durP1;ratioP1;P1;durP2;ratioP2;P2;SDS_P1;SDS_P2;PMS_P1;PMS_P2;Temp;Humidity;BMP_temperature;BMP_pressure;BME280_temperature;BME280_humidity;BME280_pressure;Samples;Min_cycle;Max_cycle;Signal;HPM_P1;HPM_P2
2024/02/06 00:01:50;;;;;;;1999.90;999.90;;;9.10;1.00;;;;;;5031554;28;20165;-71
2024/02/06 00:04:16;;;;;;;1999.90;999.90;;;9.10;1.00;;;;;;5031611;28;20779;-72
2024/02/06 00:06:42;;;;;;;1999.90;999.90;;;9.10;1.00;;;;;;5031306;28;20444;-70
2024/02/06 00:09:11;;;;;;;1999.90;999.90;;;9.20;1.00;;;;;;5031171;28;20408;-71
2024/02/06 00:11:38;;;;;;;1999.90;999.90;;;9.20;1.00;;;;;;5031501;28;20651;-71
2024/02/06 00:14:04;;;;;;;1999.90;999.90;;;9.20;1.00;;;;;;5031458;28;20946;-70
2024/02/06 00:16:30;;;;;;;1999.90;999.90;;;;;;;;;;5031453;28;20411;-71
2024/02/06 00:18:55;;;;;;;1999.90;999.90;;;9.20;1.00;;;;;;5031181;28;20178;-71
2024/02/06 00:21:22;;;;;;;1999.90;999.90;;;9.30;1.00;;;;;;5031190;28;20434;-71
2024/02/06 00:23:48;;;;;;;1999.90;999.90;;;9.30;1.00;;;;;;5031597;28;20657;-71
2024/02/06 00:26:13;;;;;;;1999.90;999.90;;;9.30;1.00;;;;;;5034928;28;20419;-71
2024/02/06 00:28:39;;;;;;;1999.90;999.90;;;9.30;1.00;;;;;;5034733;28;20200;-70
2024/02/06 00:31:04;;;;;;;1999.90;999.90;;;9.50;1.00;;;;;;5034840;28;20205;-71
2024/02/06 00:33:30;;;;;;;1999.90;999.90;;;9.30;1.00;;;;;;5032766;28;20538;-70
2024/02/06 00:35:56;;;;;;;1999.90;999.90;;;9.30;1.00;;;;;;5015037;28;20178;-70
2024/02/06 00:38:21;;;;;;;1999.90;999.90;;;9.30;1.00;;;;;;5014708;28;20707;-71
2024/02/06 00:40:47;;;;;;;1999.90;999.90;;;9.30;1.00;;;;;;5014768;28;20613;-71
2024/02/06 00:43:12;;;;;;;1999.90;999.90;;;9.40;1.00;;;;;;5014892;28;20257;-71
2024/02/06 00:45:38;;;;;;;1999.90;999.90;;;9.40;1.00;;;;;;5014967;28;20183;-71
2024/02/06 00:48:04;;;;;;;1999.90;999.90;;;9.40;1.00;;;;;;5014503;28;20194;-71
2024/02/06 00:50:29;;;;;;;1999.90;999.90;;;9.40;1.00;;;;;;5014654;28;20186;-71
2024/02/06 00:52:55;;;;;;;1999.90;999.90;;;;;;;;;;5014771;28;20224;-70
2024/02/06 00:55:21;;;;;;;1999.90;999.90;;;9.40;1.00;;;;;;5014719;28;20203;-70
2024/02/06 00:57:47;;;;;;;1999.90;999.90;;;;;;;;;;5014454;28;20445;-70
2024/02/06 01:00:13;;;;;;;1999.90;999.90;;;9.50;1.00;;;;;;5014582;28;20277;-70
2024/02/06 01:02:39;;;;;;;1999.90;999.90;;;9.50;99.90;;;;;;5014571;28;20424;-71
2024/02/06 01:05:04;;;;;;;1999.90;999.90;;;9.50;99.90;;;;;;5013186;28;20418;-71
2024/02/06 01:07:30;;;;;;;1999.90;999.90;;;9.50;99.90;;;;;;5014415;28;20209;-71
2024/02/06 01:09:56;;;;;;;1999.90;999.90;;;9.40;99.90;;;;;;5014293;28;20289;-70
2024/02/06 01:12:22;;;;;;;1999.90;999.90;;;9.50;1.00;;;;;;5014403;28;20170;-71
2024/02/06 01:14:48;;;;;;;1999.90;999.90;;;9.40;99.90;;;;;;5014381;28;20446;-70
2024/02/06 01:17:14;;;;;;;1999.90;999.90;;;9.50;1.00;;;;;;5014321;28;20438;-71
2024/02/06 01:19:39;;;;;;;1999.90;999.90;;;9.60;1.00;;;;;;5013861;28;20793;-70
2024/02/06 01:22:06;;;;;;;1999.90;999.90;;;;;;;;;;5014261;28;20181;-69
2024/02/06 01:24:32;;;;;;;1999.90;999.90;;;9.40;37.40;;;;;;5014199;28;20525;-70
2024/02/06 01:26:59;;;;;;;1999.90;999.90;;;9.40;22.00;;;;;;5014064;28;20458;-70
2024/02/06 01:29:25;;;;;;;1999.90;999.90;;;9.40;20.10;;;;;;5013747;28;20429;-71
2024/02/06 01:31:51;;;;;;;1999.90;999.90;;;9.40;19.70;;;;;;5014012;28;20515;-70
2024/02/06 01:34:16;;;;;;;1999.90;999.90;;;9.40;27.80;;;;;;5014105;28;20641;-70
2024/02/06 01:36:42;;;;;;;1999.90;999.90;;;9.40;1.00;;;;;;5013457;28;20544;-71
2024/02/06 01:39:08;;;;;;;1999.90;999.90;;;9.60;1.00;;;;;;5013450;28;20167;-71
2024/02/06 01:41:33;;;;;;;1999.90;999.90;;;9.40;99.90;;;;;;5013875;28;20257;-72
2024/02/06 01:43:59;;;;;;;1999.90;999.90;;;9.40;99.90;;;;;;5013763;28;20171;-71
2024/02/06 01:46:27;;;;;;;1999.90;999.90;;;9.40;99.90;;;;;;5013628;28;20174;-71
2024/02/06 01:48:54;;;;;;;1999.90;999.90;;;9.40;99.90;;;;;;5013460;28;20716;-71
2024/02/06 01:51:22;;;;;;;1999.90;999.90;;;9.50;1.00;;;;;;5013635;28;20452;-71
2024/02/06 01:53:48;;;;;;;1999.90;999.90;;;9.40;1.00;;;;;;5013590;28;20405;-71
2024/02/06 01:56:14;;;;;;;1999.90;999.90;;;9.40;1.00;;;;;;5013544;28;20411;-72
2024/02/06 01:58:40;;;;;;;1999.90;999.90;;;9.50;99.90;;;;;;5013291;28;20172;-71
2024/02/06 02:01:06;;;;;;;1999.90;999.90;;;9.40;99.90;;;;;;5013324;28;20430;-72
2024/02/06 02:03:32;;;;;;;1999.90;999.90;;;;;;;;;;5013399;28;20257;-72
2024/02/06 02:05:59;;;;;;;1999.90;999.90;;;9.40;99.90;;;;;;5013426;28;20431;-71
2024/02/06 02:08:31;;;;;;;1999.90;999.90;;;9.50;1.00;;;;;;5013059;28;20516;-71
2024/02/06 02:10:56;;;;;;;1999.90;999.90;;;9.50;99.90;;;;;;5013270;28;20416;-71
2024/02/06 02:13:22;;;;;;;1999.90;999.90;;;9.50;1.00;;;;;;5013310;28;20416;-72
2024/02/06 02:15:48;;;;;;;1999.90;999.90;;;9.50;1.00;;;;;;5013300;28;20175;-70
2024/02/06 02:18:13;;;;;;;1999.90;999.90;;;9.60;1.00;;;;;;5012934;28;20185;-71
2024/02/06 02:20:40;;;;;;;1999.90;999.90;;;9.50;99.90;;;;;;5013153;28;20797;-71
2024/02/06 02:23:06;;;;;;;1999.90;999.90;;;9.60;99.90;;;;;;5013090;28;20170;-71
2024/02/06 02:25:32;;;;;;;1999.90;999.90;;;9.60;99.90;;;;;;5013070;28;20421;-71
2024/02/06 02:27:58;;;;;;;1999.90;999.90;;;9.50;99.90;;;;;;5012801;28;20679;-71
2024/02/06 02:30:25;;;;;;;1999.90;999.90;;;9.50;99.90;;;;;;5012885;28;20480;-71
2024/02/06 02:32:53;;;;;;;1999.90;999.90;;;9.50;99.90;;;;;;5012925;28;20900;-71
2024/02/06 02:35:18;;;;;;;1999.90;999.90;;;9.70;99.90;;;;;;5012913;28;20465;-71
2024/02/06 02:37:44;;;;;;;1999.90;999.90;;;9.60;99.90;;;;;;5012639;28;20824;-71
2024/02/06 02:40:10;;;;;;;1999.90;999.90;;;9.80;99.90;;;;;;5012697;28;20211;-70
2024/02/06 02:42:36;;;;;;;1999.90;999.90;;;9.70;1.00;;;;;;5012739;28;20171;-70
2024/02/06 02:45:02;;;;;;;1999.90;999.90;;;9.70;1.00;;;;;;5012736;28;20410;-70
2024/02/06 02:47:27;;;;;;;1999.90;999.90;;;9.70;1.00;;;;;;5011873;28;20454;-70
2024/02/06 02:49:53;;;;;;;1999.90;999.90;;;9.80;47.70;;;;;;5012344;28;20418;-70
2024/02/06 02:52:19;;;;;;;1999.90;999.90;;;9.70;1.00;;;;;;5012548;28;20171;-70
2024/02/06 02:54:45;;;;;;;1999.90;999.90;;;;;;;;;;5012554;28;20198;-70
2024/02/06 02:57:10;;;;;;;1999.90;999.90;;;9.70;1.00;;;;;;5012607;28;20242;-70
2024/02/06 02:59:36;;;;;;;1999.90;999.90;;;9.80;1.00;;;;;;5012103;28;20437;-70
2024/02/06 03:02:01;;;;;;;1999.90;999.90;;;9.80;99.90;;;;;;5012446;28;20541;-70
2024/02/06 03:04:27;;;;;;;1999.90;999.90;;;9.80;1.00;;;;;;5012449;28;20225;-70
2024/02/06 03:06:52;;;;;;;1999.90;999.90;;;9.80;99.90;;;;;;5012291;28;20203;-71
2024/02/06 03:09:19;;;;;;;1999.90;999.90;;;9.90;1.00;;;;;;5012077;28;20164;-71
2024/02/06 03:11:45;;;;;;;1999.90;999.90;;;9.80;1.00;;;;;;5012352;28;20162;-70
2024/02/06 03:14:12;;;;;;;1999.90;999.90;;;9.80;1.00;;;;;;5012196;28;20408;-71
2024/02/06 03:16:40;;;;;;;1999.90;999.90;;;9.80;1.00;;;;;;5012411;28;20210;-71
2024/02/06 03:19:07;;;;;;;1999.90;999.90;;;9.80;1.00;;;;;;5011931;28;20903;-71
2024/02/06 03:21:33;;;;;;;1999.90;999.90;;;9.80;1.00;;;;;;5012246;28;20167;-71
2024/02/06 03:23:59;;;;;;;1999.90;999.90;;;9.80;99.90;;;;;;5012179;28;20407;-71
2024/02/06 03:26:25;;;;;;;1999.90;999.90;;;9.80;1.00;;;;;;5012062;28;20406;-70
2024/02/06 03:28:51;;;;;;;1999.90;999.90;;;;;;;;;;5011898;28;20844;-71
2024/02/06 03:31:17;;;;;;;1999.90;999.90;;;9.70;94.10;;;;;;5012023;28;20679;-71
2024/02/06 03:33:42;;;;;;;1999.90;999.90;;;9.70;99.90;;;;;;5012131;28;20493;-71
2024/02/06 03:36:08;;;;;;;1999.90;999.90;;;9.80;99.90;;;;;;5012142;28;20171;-71
2024/02/06 03:38:34;;;;;;;1999.90;999.90;;;9.80;99.90;;;;;;5011829;28;20207;-71
2024/02/06 03:41:00;;;;;;;1999.90;999.90;;;9.80;99.90;;;;;;5011783;28;20294;-71
2024/02/06 03:43:25;;;;;;;1999.90;999.90;;;9.70;99.90;;;;;;5011969;28;20505;-71
2024/02/06 03:45:51;;;;;;;1999.90;999.90;;;9.80;99.90;;;;;;5011969;28;20702;-71
2024/02/06 03:48:17;;;;;;;1999.90;999.90;;;9.80;99.90;;;;;;5011666;28;20202;-70
2024/02/06 03:50:43;;;;;;;1999.90;999.90;;;;;;;;;;5011866;28;20222;-71
2024/02/06 03:53:08;;;;;;;1999.90;999.90;;;9.80;99.90;;;;;;5011931;28;20176;-71
2024/02/06 03:55:34;;;;;;;1999.90;999.90;;;9.80;99.90;;;;;;5011869;28;20413;-70
2024/02/06 03:57:59;;;;;;;1999.90;999.90;;;9.80;99.90;;;;;;5012155;28;20549;-71
2024/02/06 04:00:25;;;;;;;1999.90;999.90;;;9.90;99.90;;;;;;5015689;28;20192;-71
2024/02/06 04:02:51;;;;;;;1999.90;999.90;;;;;;;;;;5015645;28;20173;-71
2024/02/06 04:05:16;;;;;;;1999.90;999.90;;;9.90;99.90;;;;;;5015677;28;20698;-70
2024/02/06 04:07:42;;;;;;;1999.90;999.90;;;9.80;99.90;;;;;;5015350;28;20461;-71
2024/02/06 04:10:08;;;;;;;1999.90;999.90;;;9.90;99.90;;;;;;5015567;28;20697;-70
2024/02/06 04:12:34;;;;;;;1999.90;999.90;;;9.90;99.90;;;;;;5015520;28;20178;-70
2024/02/06 04:14:59;;;;;;;1999.90;999.90;;;10.00;99.90;;;;;;5015443;28;20475;-71
2024/02/06 04:17:25;;;;;;;1999.90;999.90;;;9.90;99.90;;;;;;5015512;28;20253;-71
2024/02/06 04:19:50;;;;;;;1999.90;999.90;;;9.90;99.90;;;;;;5015101;28;20195;-71
2024/02/06 04:22:16;;;;;;;1999.90;999.90;;;9.90;99.90;;;;;;5015378;28;20639;-70
2024/02/06 04:24:42;;;;;;;1999.90;999.90;;;9.90;99.90;;;;;;5015381;28;20184;-71
2024/02/06 04:27:07;;;;;;;1999.90;999.90;;;9.90;99.90;;;;;;5015211;28;20205;-70
2024/02/06 04:29:33;;;;;;;1999.90;999.90;;;9.90;99.90;;;;;;5014838;28;20204;-71
2024/02/06 04:32:00;;;;;;;1999.90;999.90;;;9.90;99.90;;;;;;5015186;28;20229;-70
2024/02/06 04:34:27;;;;;;;1999.90;999.90;;;9.90;99.90;;;;;;5015136;28;20441;-70
2024/02/06 04:36:53;;;;;;;1999.90;999.90;;;9.90;99.90;;;;;;5015111;28;20409;-70
2024/02/06 04:39:19;;;;;;;1999.90;999.90;;;10.10;99.90;;;;;;5014608;28;20474;-73
2024/02/06 04:41:44;;;;;;;1999.90;999.90;;;9.90;99.90;;;;;;5015045;28;20189;-71
2024/02/06 04:44:10;;;;;;;1999.90;999.90;;;9.90;99.90;;;;;;5014917;28;20414;-70
2024/02/06 04:46:35;;;;;;;1999.90;999.90;;;9.90;99.90;;;;;;5014890;28;20213;-70
2024/02/06 04:49:01;;;;;;;1999.90;999.90;;;9.80;99.90;;;;;;5014604;28;20178;-70
2024/02/06 04:51:27;;;;;;;1999.90;999.90;;;9.90;99.90;;;;;;5014770;28;20196;-70
2024/02/06 04:53:53;;;;;;;1999.90;999.90;;;;;;;;;;5015147;28;20442;-70
2024/02/06 04:56:22;;;;;;;1999.90;999.90;;;9.80;1.00;;;;;;5014691;28;20226;-70
2024/02/06 04:58:49;;;;;;;1999.90;999.90;;;9.80;99.90;;;;;;5014349;28;20446;-71
2024/02/06 05:01:15;;;;;;;1999.90;999.90;;;9.80;99.90;;;;;;5014611;28;20513;-70
2024/02/06 05:03:41;;;;;;;1999.90;999.90;;;9.90;99.90;;;;;;5014604;28;20488;-70
2024/02/06 05:06:07;;;;;;;1999.90;999.90;;;9.70;99.90;;;;;;5014531;28;20433;-70
2024/02/06 05:08:32;;;;;;;1999.90;999.90;;;9.70;99.90;;;;;;5012934;28;20698;-71
2024/02/06 05:10:58;;;;;;;1999.90;999.90;;;;;;;;;;5013507;28;20202;-70
2024/02/06 05:13:24;;;;;;;1999.90;999.90;;;9.80;99.90;;;;;;5014385;28;20541;-71
2024/02/06 05:15:49;;;;;;;1999.90;999.90;;;9.80;99.90;;;;;;5014324;28;20405;-71
2024/02/06 05:18:15;;;;;;;1999.90;999.90;;;9.80;99.90;;;;;;5014169;28;20662;-71
2024/02/06 05:20:41;;;;;;;1999.90;999.90;;;9.90;99.90;;;;;;5014206;28;20285;-70
2024/02/06 05:23:07;;;;;;;1999.90;999.90;;;9.90;99.90;;;;;;5014172;28;20180;-71
2024/02/06 05:25:32;;;;;;;1999.90;999.90;;;9.90;99.90;;;;;;5014200;28;20234;-71
2024/02/06 05:27:58;;;;;;;1999.90;999.90;;;10.00;99.90;;;;;;5013736;28;20456;-71
2024/02/06 05:30:24;;;;;;;1999.90;999.90;;;9.90;99.90;;;;;;5014049;28;20195;-71
2024/02/06 05:32:49;;;;;;;1999.90;999.90;;;9.90;99.90;;;;;;5014022;28;20179;-71
2024/02/06 05:35:15;;;;;;;1999.90;999.90;;;9.90;99.90;;;;;;5014029;28;20175;-71
2024/02/06 05:37:41;;;;;;;1999.90;999.90;;;10.00;1.00;;;;;;5013689;28;20175;-71
2024/02/06 05:40:09;;;;;;;1999.90;999.90;;;9.90;1.00;;;;;;5013665;28;20265;-70
2024/02/06 05:42:35;;;;;;;1999.90;999.90;;;10.00;99.90;;;;;;5013847;28;20612;-71
2024/02/06 05:45:01;;;;;;;1999.90;999.90;;;10.00;99.90;;;;;;5013825;28;20446;-71
2024/02/06 05:47:26;;;;;;;1999.90;999.90;;;9.90;1.00;;;;;;5013702;28;20666;-71
2024/02/06 05:49:52;;;;;;;1999.90;999.90;;;9.90;1.00;;;;;;5013412;28;20195;-72
2024/02/06 05:52:18;;;;;;;1999.90;999.90;;;;;;;;;;5013674;28;20164;-71
2024/02/06 05:54:43;;;;;;;1999.90;999.90;;;9.90;99.90;;;;;;5013627;28;20178;-71
2024/02/06 05:57:09;;;;;;;1999.90;999.90;;;10.00;99.90;;;;;;5013533;28;20504;-70
2024/02/06 05:59:34;;;;;;;1999.90;999.90;;;10.00;1.00;;;;;;5013264;28;20195;-71
2024/02/06 06:02:00;;;;;;;1999.90;999.90;;;10.00;99.90;;;;;;5013498;28;20184;-71
2024/02/06 06:04:26;;;;;;;1999.90;999.90;;;10.00;59.30;;;;;;5013455;28;20247;-70
2024/02/06 06:06:51;;;;;;;1999.90;999.90;;;10.00;99.90;;;;;;5013294;28;20475;-71
2024/02/06 06:09:17;;;;;;;1999.90;999.90;;;10.10;32.90;;;;;;5013046;28;20171;-71
2024/02/06 06:11:43;;;;;;;1999.90;999.90;;;10.00;1.00;;;;;;5013295;28;20172;-71
2024/02/06 06:14:08;;;;;;;1999.90;999.90;;;10.10;1.00;;;;;;5013230;28;20422;-70
2024/02/06 06:16:34;;;;;;;1999.90;999.90;;;10.00;1.00;;;;;;5013232;28;20249;-70
2024/02/06 06:19:00;;;;;;;1999.90;999.90;;;10.10;1.00;;;;;;5012967;28;20178;-71
2024/02/06 06:21:26;;;;;;;1999.90;999.90;;;10.10;1.00;;;;;;5013025;28;20196;-71
2024/02/06 06:23:52;;;;;;;1999.90;999.90;;;10.00;99.90;;;;;;5013156;28;21096;-71
2024/02/06 06:26:18;;;;;;;1999.90;999.90;;;10.10;99.90;;;;;;5013006;28;20415;-71
2024/02/06 06:28:43;;;;;;;1999.90;999.90;;;10.10;1.00;;;;;;5012561;28;20168;-71
2024/02/06 06:31:09;;;;;;;1999.90;999.90;;;10.10;99.90;;;;;;5012729;28;20191;-71
2024/02/06 06:33:35;;;;;;;1999.90;999.90;;;10.10;1.00;;;;;;5012941;28;20179;-71
2024/02/06 06:36:01;;;;;;;1999.90;999.90;;;10.00;99.90;;;;;;5012735;28;20494;-70
2024/02/06 06:38:26;;;;;;;1999.90;999.90;;;10.00;1.00;;;;;;5012163;28;20184;-71
2024/02/06 06:40:52;;;;;;;1999.90;999.90;;;10.00;1.00;;;;;;5012760;28;20219;-71
2024/02/06 06:43:18;;;;;;;1999.90;999.90;;;;;;;;;;5012815;28;20187;-71
2024/02/06 06:45:44;;;;;;;1999.90;999.90;;;10.10;1.00;;;;;;5012896;28;20599;-71
2024/02/06 06:48:10;;;;;;;1999.90;999.90;;;10.10;99.90;;;;;;5012323;28;20466;-71
2024/02/06 06:50:35;;;;;;;1999.90;999.90;;;10.10;99.90;;;;;;5012718;28;20898;-71
2024/02/06 06:53:01;;;;;;;1999.90;999.90;;;10.10;1.00;;;;;;5011455;28;20211;-71
2024/02/06 06:55:27;;;;;;;1999.90;999.90;;;10.10;1.00;;;;;;5012579;28;20175;-72
2024/02/06 06:57:52;;;;;;;1999.90;999.90;;;10.10;1.00;;;;;;5012336;28;20233;-71
2024/02/06 07:00:19;;;;;;;1999.90;999.90;;;10.10;57.00;;;;;;5012501;28;20694;-71
2024/02/06 07:02:44;;;;;;;1999.90;999.90;;;10.10;1.00;;;;;;5012406;28;20179;-70
2024/02/06 07:05:10;;;;;;;1999.90;999.90;;;;;;;;;;5012344;28;20425;-70
2024/02/06 07:07:37;;;;;;;1999.90;999.90;;;10.10;1.00;;;;;;5012104;28;20543;-70
2024/02/06 07:10:02;;;;;;;1999.90;999.90;;;10.10;1.00;;;;;;5012287;28;20816;-70
2024/02/06 07:12:28;;;;;;;1999.90;999.90;;;10.20;1.00;;;;;;5012078;28;20510;-70
2024/02/06 07:14:54;;;;;;;1999.90;999.90;;;;;;;;;;5012242;28;20406;-71
2024/02/06 07:17:20;;;;;;;1999.90;999.90;;;10.20;1.00;;;;;;5012247;28;20184;-70
2024/02/06 07:19:45;;;;;;;1999.90;999.90;;;10.20;1.00;;;;;;5011906;28;20953;-70
2024/02/06 07:22:11;;;;;;;1999.90;999.90;;;10.20;1.00;;;;;;5012117;28;20178;-71
2024/02/06 07:24:36;;;;;;;1999.90;999.90;;;10.90;1.00;;;;;;5012206;28;20183;-71
2024/02/06 07:27:02;;;;;;;1999.90;999.90;;;10.20;99.90;;;;;;5012079;28;20689;-71
2024/02/06 07:29:27;;;;;;;1999.90;999.90;;;10.20;1.00;;;;;;5011874;28;20239;-71
2024/02/06 07:31:54;;;;;;;1999.90;999.90;;;10.20;1.00;;;;;;5012148;28;20175;-71
2024/02/06 07:34:20;;;;;;;1999.90;999.90;;;10.30;99.90;;;;;;5017597;28;20187;-71
2024/02/06 07:36:46;;;;;;;1999.90;999.90;;;10.30;1.00;;;;;;5018568;28;20803;-72
2024/02/06 07:39:12;;;;;;;1999.90;999.90;;;10.50;1.00;;;;;;5018152;28;20243;-71
2024/02/06 07:41:38;;;;;;;1999.90;999.90;;;10.30;32.50;;;;;;5018670;28;20403;-70
2024/02/06 07:44:04;;;;;;;1999.90;999.90;;;10.30;27.80;;;;;;5018545;28;20176;-70
2024/02/06 07:46:30;;;;;;;1999.90;999.90;;;10.30;1.00;;;;;;5018504;28;20955;-71
2024/02/06 07:48:56;;;;;;;1999.90;999.90;;;10.40;1.00;;;;;;5018300;28;20168;-71
2024/02/06 07:51:22;;;;;;;1999.90;999.90;;;10.40;1.00;;;;;;5018331;28;20419;-70
2024/02/06 07:53:49;;;;;;;1999.90;999.90;;;10.40;1.00;;;;;;5018465;28;20461;-71
2024/02/06 07:56:15;;;;;;;1999.90;999.90;;;10.40;99.90;;;;;;5018483;28;20838;-71
2024/02/06 07:58:41;;;;;;;1999.90;999.90;;;10.50;99.90;;;;;;5018210;28;20402;-71
2024/02/06 08:01:07;;;;;;;1999.90;999.90;;;10.50;99.90;;;;;;5018318;28;20504;-71
2024/02/06 08:03:32;;;;;;;1999.90;999.90;;;10.50;99.90;;;;;;5018324;28;20194;-71
2024/02/06 08:05:58;;;;;;;1999.90;999.90;;;10.60;1.00;;;;;;5017136;28;20643;-71
2024/02/06 08:08:24;;;;;;;1999.90;999.90;;;10.60;99.90;;;;;;5018155;28;20228;-71
2024/02/06 08:10:50;;;;;;;1999.90;999.90;;;10.60;17.80;;;;;;5018283;28;20214;-71
2024/02/06 08:13:16;;;;;;;1999.90;999.90;;;10.60;38.10;;;;;;5017872;28;20983;-71
2024/02/06 08:15:41;;;;;;;1999.90;999.90;;;10.60;26.50;;;;;;5018194;28;20410;-71
2024/02/06 08:18:08;;;;;;;1999.90;999.90;;;10.60;1.00;;;;;;5017597;28;20184;-70
2024/02/06 08:20:34;;;;;;;1999.90;999.90;;;10.60;1.00;;;;;;5018148;28;20191;-71
2024/02/06 08:22:59;;;;;;;1999.90;999.90;;;10.70;1.00;;;;;;5018175;28;20491;-70
2024/02/06 08:25:25;;;;;;;1999.90;999.90;;;10.70;46.80;;;;;;5018035;28;20506;-71
2024/02/06 08:27:51;;;;;;;1999.90;999.90;;;10.70;99.90;;;;;;5017313;28;20200;-71
2024/02/06 08:30:18;;;;;;;1999.90;999.90;;;10.80;99.90;;;;;;5018016;28;20426;-71
2024/02/06 08:32:44;;;;;;;1999.90;999.90;;;10.70;99.90;;;;;;5017806;28;20436;-71
2024/02/06 08:35:09;;;;;;;1999.90;999.90;;;10.70;99.90;;;;;;5017524;28;20421;-71
2024/02/06 08:37:35;;;;;;;1999.90;999.90;;;10.70;99.90;;;;;;5017065;28;20505;-71
2024/02/06 08:40:02;;;;;;;1999.90;999.90;;;10.80;99.90;;;;;;5016955;28;20214;-71
2024/02/06 08:42:28;;;;;;;1999.90;999.90;;;10.80;99.90;;;;;;5016918;28;20764;-71
2024/02/06 08:44:54;;;;;;;1999.90;999.90;;;10.80;99.90;;;;;;5013826;28;20421;-71
2024/02/06 08:47:19;;;;;;;1999.90;999.90;;;10.70;99.90;;;;;;5014721;28;20694;-70
2024/02/06 08:49:45;;;;;;;1999.90;999.90;;;10.70;99.90;;;;;;5014584;28;20194;-70
2024/02/06 08:52:10;;;;;;;1999.90;999.90;;;10.80;99.90;;;;;;5014827;28;20168;-71
2024/02/06 08:54:36;;;;;;;1999.90;999.90;;;10.80;99.90;;;;;;5014788;28;20166;-71
2024/02/06 08:57:01;;;;;;;1999.90;999.90;;;10.80;99.90;;;;;;5014795;28;20596;-71
2024/02/06 08:59:27;;;;;;;1999.90;999.90;;;10.80;99.90;;;;;;5014434;28;20198;-70
2024/02/06 09:01:53;;;;;;;1999.90;999.90;;;10.70;99.90;;;;;;5014570;28;20234;-71
2024/02/06 09:04:19;;;;;;;1999.90;999.90;;;;;;;;;;5014574;28;20178;-71
2024/02/06 09:06:44;;;;;;;1999.90;999.90;;;10.70;99.90;;;;;;5014518;28;20608;-71
2024/02/06 09:09:12;;;;;;;1999.90;999.90;;;10.50;99.90;;;;;;5014174;28;20463;-71
2024/02/06 09:11:38;;;;;;;1999.90;999.90;;;10.70;99.90;;;;;;5014495;28;20172;-70
2024/02/06 09:14:03;;;;;;;1999.90;999.90;;;10.80;99.90;;;;;;5014428;28;20408;-71
2024/02/06 09:16:29;;;;;;;1999.90;999.90;;;10.70;99.90;;;;;;5014303;28;20705;-70
2024/02/06 09:18:57;;;;;;;1999.90;999.90;;;10.70;99.90;;;;;;5013664;28;20168;-71
2024/02/06 09:21:23;;;;;;;1999.90;999.90;;;10.80;99.90;;;;;;5011070;28;20226;-71
2024/02/06 09:23:49;;;;;;;1999.90;999.90;;;;;;;;;;5014108;28;20403;-71
2024/02/06 09:26:15;;;;;;;1999.90;999.90;;;10.80;99.90;;;;;;5012893;28;20690;-71
2024/02/06 09:28:44;;;;;;;1999.90;999.90;;;10.80;99.90;;;;;;5013471;28;20457;-72
2024/02/06 09:31:11;;;;;;;1999.90;999.90;;;10.80;99.90;;;;;;5013494;28;20435;-71
2024/02/06 09:33:37;;;;;;;1999.90;999.90;;;10.80;99.90;;;;;;5013973;28;20415;-71
2024/02/06 09:36:05;;;;;;;1999.90;999.90;;;10.80;99.90;;;;;;5013584;28;20418;-71
2024/02/06 09:38:31;;;;;;;1999.90;999.90;;;10.80;99.90;;;;;;5013580;28;20180;-72
2024/02/06 09:40:56;;;;;;;1999.90;999.90;;;10.80;99.90;;;;;;5033127;28;20519;-71
2024/02/06 09:43:23;;;;;;;1999.90;999.90;;;10.80;99.90;;;;;;5033060;28;20425;-72
2024/02/06 09:45:48;;;;;;;1999.90;999.90;;;10.80;99.90;;;;;;5033542;28;20170;-71
2024/02/06 09:48:14;;;;;;;1999.90;999.90;;;10.80;99.90;;;;;;5033270;28;20453;-72
2024/02/06 09:50:40;;;;;;;1999.90;999.90;;;10.80;99.90;;;;;;5032990;28;20198;-71
2024/02/06 09:53:08;;;;;;;1999.90;999.90;;;10.90;99.90;;;;;;5033337;28;20175;-71
2024/02/06 09:55:35;;;;;;;1999.90;999.90;;;10.90;99.90;;;;;;5033210;28;21114;-70
2024/02/06 09:58:01;;;;;;;1999.90;999.90;;;10.80;99.90;;;;;;5032513;28;20417;-71
2024/02/06 10:00:27;;;;;;;1999.90;999.90;;;10.80;99.90;;;;;;5021303;28;20449;-74
2024/02/06 10:02:59;;;;;;;1999.90;999.90;;;10.80;99.90;;;;;;5013336;28;20414;-73
2024/02/06 10:05:34;;;;;;;1999.90;999.90;;;10.80;99.90;;;;;;5012976;28;20411;-75
2024/02/06 10:08:01;;;;;;;1999.90;999.90;;;10.80;99.90;;;;;;5012971;28;20861;-73
2024/02/06 10:10:28;;;;;;;1999.90;999.90;;;10.80;99.90;;;;;;5013229;28;20488;-74
2024/02/06 10:12:54;;;;;;;1999.90;999.90;;;10.70;99.90;;;;;;5012657;28;20402;-74
2024/02/06 10:15:21;;;;;;;1999.90;999.90;;;10.70;99.90;;;;;;5013228;28;20923;-74
2024/02/06 10:17:47;;;;;;;1999.90;999.90;;;10.70;99.90;;;;;;5012985;28;20167;-75
2024/02/06 10:20:13;;;;;;;1999.90;999.90;;;10.70;99.90;;;;;;5011388;28;20493;-74
2024/02/06 10:22:39;;;;;;;1999.90;999.90;;;10.70;99.90;;;;;;5012954;28;20698;-73
2024/02/06 10:25:05;;;;;;;1999.90;999.90;;;10.70;99.90;;;;;;5013144;28;20411;-72
2024/02/06 10:27:31;;;;;;;1999.90;999.90;;;10.70;99.90;;;;;;5012929;28;20820;-73
2024/02/06 10:30:07;;;;;;;1999.90;999.90;;;10.70;99.90;;;;;;5012874;28;20438;-71
2024/02/06 10:32:34;;;;;;;1999.90;999.90;;;10.70;99.90;;;;;;5012758;28;20175;-71
2024/02/06 10:35:05;;;;;;;1999.90;999.90;;;10.70;99.90;;;;;;5012437;28;20614;-71
2024/02/06 10:37:38;;;;;;;1999.90;999.90;;;10.80;99.90;;;;;;5012766;28;20932;-70
2024/02/06 10:40:11;;;;;;;1999.90;999.90;;;10.80;99.90;;;;;;5011360;28;20902;-72
2024/02/06 10:42:39;;;;;;;1999.90;999.90;;;10.80;99.90;;;;;;5012174;28;20417;-70
2024/02/06 10:45:05;;;;;;;1999.90;999.90;;;10.70;99.90;;;;;;5012855;28;20778;-70
2024/02/06 10:47:31;;;;;;;1999.90;999.90;;;10.70;99.90;;;;;;5012614;28;20456;-70
2024/02/06 10:50:04;;;;;;;1999.90;999.90;;;10.70;99.90;;;;;;5011842;28;20837;-70
2024/02/06 10:52:30;;;;;;;1999.90;999.90;;;10.70;99.90;;;;;;5012225;28;20498;-71
2024/02/06 10:54:56;;;;;;;1999.90;999.90;;;10.70;99.90;;;;;;5012490;28;20418;-70
2024/02/06 10:57:25;;;;;;;1999.90;999.90;;;10.70;99.90;;;;;;5011961;28;20414;-70
2024/02/06 10:59:56;;;;;;;1999.90;999.90;;;10.70;99.90;;;;;;5012141;28;20435;-71
2024/02/06 11:02:24;;;;;;;1999.90;999.90;;;10.70;99.90;;;;;;5012187;28;20418;-70
2024/02/06 11:05:14;;;;;;;1999.90;999.90;;;10.80;99.90;;;;;;5011732;28;20418;-70
2024/02/06 11:07:56;;;;;;;1999.90;999.90;;;10.90;99.90;;;;;;5011315;28;20850;-70
2024/02/06 11:10:36;;;;;;;1999.90;999.90;;;10.90;99.90;;;;;;5012299;28;20918;-70
2024/02/06 11:13:29;;;;;;;1999.90;999.90;;;11.00;99.90;;;;;;5010448;28;20470;-70
2024/02/06 11:16:02;;;;;;;1999.90;999.90;;;11.10;99.90;;;;;;5004092;28;20423;-70
2024/02/06 11:19:02;;;;;;;1999.90;999.90;;;11.10;99.90;;;;;;5011839;28;20902;-70
2024/02/06 11:21:34;;;;;;;1999.90;999.90;;;11.20;99.90;;;;;;5010494;28;20526;-70
2024/02/06 11:24:00;;;;;;;1999.90;999.90;;;11.20;99.90;;;;;;5012481;28;20913;-70
2024/02/06 11:26:26;;;;;;;1999.90;999.90;;;11.20;99.90;;;;;;5011318;28;20417;-70
2024/02/06 11:28:52;;;;;;;1999.90;999.90;;;11.20;99.90;;;;;;5010872;28;20989;-70
2024/02/06 11:31:19;;;;;;;1999.90;999.90;;;11.20;99.90;;;;;;5010725;28;20195;-70
2024/02/06 11:33:45;;;;;;;1999.90;999.90;;;11.20;99.90;;;;;;5011520;28;20850;-70
2024/02/06 11:36:16;;;;;;;1999.90;999.90;;;11.10;99.90;;;;;;5011947;28;20502;-70
2024/02/06 11:38:44;;;;;;;1999.90;999.90;;;11.10;99.90;;;;;;5011545;28;20640;-70
2024/02/06 11:41:16;;;;;;;1999.90;999.90;;;11.10;99.90;;;;;;5011233;28;20540;-70
2024/02/06 11:43:42;;;;;;;1999.90;999.90;;;11.00;99.90;;;;;;5011884;28;20770;-70
2024/02/06 11:46:08;;;;;;;1999.90;999.90;;;11.00;99.90;;;;;;5011895;28;20415;-70
2024/02/06 11:48:34;;;;;;;1999.90;999.90;;;11.00;99.90;;;;;;5011533;28;20459;-70
2024/02/06 11:51:00;;;;;;;1999.90;999.90;;;11.10;99.90;;;;;;5011640;28;20488;-70
2024/02/06 11:53:27;;;;;;;1999.90;999.90;;;11.20;99.90;;;;;;5011758;28;20820;-70
2024/02/06 11:55:57;;;;;;;1999.90;999.90;;;11.20;99.90;;;;;;5011366;28;20561;-70
2024/02/06 11:58:25;;;;;;;1999.90;999.90;;;11.30;99.90;;;;;;5011533;28;20774;-70
2024/02/06 12:01:02;;;;;;;1999.90;999.90;;;11.30;99.90;;;;;;5012001;28;20435;-70
2024/02/06 12:03:27;;;;;;;1999.90;999.90;;;11.30;99.90;;;;;;5011132;28;20809;-70
2024/02/06 12:05:53;;;;;;;1999.90;999.90;;;11.40;99.90;;;;;;5011740;28;20412;-70
2024/02/06 12:08:20;;;;;;;1999.90;999.90;;;11.40;99.90;;;;;;5011384;28;20641;-70